Time,TemperatureF,DewpointF,PressureIn,WindDirection,WindDirectionDegrees,WindSpeedMPH,WindSpeedGustMPH,Humidity,HourlyPrecipIn,Conditions,Clouds,dailyrainin,SoftwareType,DateUTC
2013-01-07 00:04:00,16.7,12.4,30.25,South,180,0.0,0.0,83,0.00,CLR,FEW,0.00,WeatherDisplay:10.37,2013-01-07 06:04:00,
2013-01-07 00:10:00,16.9,12.9,30.24,South,180,0.0,0.0,84,0.00,CLR,FEW,0.00,WeatherDisplay:10.37,2013-01-07 06:10:00,
2013-01-07 00:16:00,16.9,7.1,30.24,SE,135,0.0,0.0,65,0.00,CLR,FEW,0.00,WeatherDisplay:10.37,2013-01-07 06:16:00,
2013-01-07 00:21:00,17.2,7.5,30.24,SE,135,0.0,0.0,65,0.00,CLR,FEW,0.00,WeatherDisplay:10.37,2013-01-07 06:21:00,
2013-01-07 00:27:00,17.4,7.7,30.24,SE,135,0.0,0.0,65,0.00,CLR,FEW,0.00,WeatherDisplay:10.37,2013-01-07 06:27:00,
2013-01-07 00:32:00,17.6,13.6,30.23,SE,135,0.0,0.0,84,0.00,CLR,FEW,0.00,WeatherDisplay:10.37,2013-01-07 06:32:00,
2013-01-07 00:38:00,17.8,8.0,30.23,SE,135,0.0,0.0,65,0.00,CLR,FEW,0.00,WeatherDisplay:10.37,2013-01-07 06:38:00,
2013-01-07 00:44:00,18.1,14.1,30.22,South,180,0.0,0.0,84,0.00,CLR,FEW,0.00,WeatherDisplay:10.37,2013-01-07 06:44:00,
2013-01-07 00:49:00,18.3,8.5,30.22,South,180,0.0,0.0,65,0.00,CLR,FEW,0.00,WeatherDisplay:10.37,2013-01-07 06:49:00,
2013-01-07 00:55:00,18.3,8.5,30.22,South,180,0.0,0.0,65,0.00,CLR,FEW,0.00,WeatherDisplay:10.37,2013-01-07 06:55:00,
2013-01-07 01:00:00,18.5,13.9,30.22,SW,225,0.0,0.0,82,0.00,CLR,FEW,0.00,WeatherDisplay:10.37,2013-01-07 07:00:00,
2013-01-07 01:06:00,18.3,9.5,30.22,South,180,0.0,0.0,68,0.00,CLR,FEW,0.00,WeatherDisplay:10.37,2013-01-07 07:06:00,
2013-01-07 01:12:00,18.3,9.5,30.23,SW,225,0.0,0.0,68,0.00,CLR,FEW,0.00,WeatherDisplay:10.37,2013-01-07 07:12:00,
2013-01-07 01:17:00,18.5,9.7,30.22,South,180,0.0,0.0,68,0.00,CLR,FEW,0.00,WeatherDisplay:10.37,2013-01-07 07:17:00,
2013-01-07 01:20:00,18.5,9.7,30.22,South,180,0.0,0.0,68,0.00,CLR,FEW,0.00,WeatherDisplay:10.37,2013-01-07 07:20:00,
2013-01-07 01:25:00,18.7,9.9,30.22,SE,135,0.0,1.1,68,0.00,CLR,FEW,0.00,WeatherDisplay:10.37,2013-01-07 07:25:00,
2013-01-07 01:31:00,18.7,9.9,30.22,South,180,0.0,0.0,68,0.00,CLR,FEW,0.00,WeatherDisplay:10.37,2013-01-07 07:31:00,
2013-01-07 01:36:00,19.0,13.6,30.22,South,180,0.0,0.0,79,0.00,CLR,FEW,0.00,WeatherDisplay:10.37,2013-01-07 07:36:00,
2013-01-07 01:42:00,19.0,13.6,30.23,South,180,0.0,0.0,79,0.00,CLR,FEW,0.00,WeatherDisplay:10.37,2013-01-07 07:42:00,
2013-01-07 01:48:00,19.2,13.5,30.22,SW,225,0.0,1.6,78,0.00,CLR,FEW,0.00,WeatherDisplay:10.37,2013-01-07 07:48:00,
2013-01-07 01:53:00,19.2,10.4,30.22,SW,225,0.0,0.0,68,0.00,CLR,FEW,0.00,WeatherDisplay:10.37,2013-01-07 07:53:00,
2013-01-07 01:59:00,19.6,10.7,30.23,SE,135,0.0,1.1,68,0.00,CLR,FEW,0.00,WeatherDisplay:10.37,2013-01-07 07:59:00,
2013-01-07 02:04:00,19.6,13.5,30.23,South,180,0.0,1.1,77,0.00,CLR,FEW,0.00,WeatherDisplay:10.37,2013-01-07 08:04:00,
2013-01-07 02:10:00,19.8,13.7,30.23,SW,225,0.0,0.0,77,0.00,CLR,FEW,0.00,WeatherDisplay:10.37,2013-01-07 08:10:00,
2013-01-07 02:16:00,19.8,13.4,30.23,SE,135,0.0,0.0,76,0.00,CLR,FEW,0.00,WeatherDisplay:10.37,2013-01-07 08:16:00,
2013-01-07 02:21:00,19.8,9.9,30.23,ESE,112,0.0,0.0,65,0.00,CLR,FEW,0.00,WeatherDisplay:10.37,2013-01-07 08:21:00,
2013-01-07 02:27:00,19.9,10.1,30.23,East,90,0.0,0.0,65,0.00,CLR,FEW,0.00,WeatherDisplay:10.37,2013-01-07 08:27:00,
2013-01-07 02:32:00,19.8,13.4,30.23,SE,135,0.0,0.0,76,0.00,CLR,FEW,0.00,WeatherDisplay:10.37,2013-01-07 08:32:00,
2013-01-07 02:38:00,19.8,9.9,30.22,South,180,0.0,0.0,65,0.00,CLR,FEW,0.00,WeatherDisplay:10.37,2013-01-07 08:38:00,
2013-01-07 02:44:00,19.9,13.9,30.23,SE,135,0.0,1.1,77,0.00,CLR,FEW,0.00,WeatherDisplay:10.37,2013-01-07 08:44:00,
2013-01-07 02:49:00,19.9,10.1,30.23,South,180,0.0,0.0,65,0.00,CLR,FEW,0.00,WeatherDisplay:10.37,2013-01-07 08:49:00,
2013-01-07 02:55:00,20.1,10.2,30.23,South,180,0.0,0.0,65,0.00,CLR,FEW,0.00,WeatherDisplay:10.37,2013-01-07 08:55:00,
2013-01-07 03:00:00,20.1,10.2,30.24,South,180,0.0,0.0,65,0.00,CLR,FEW,0.00,WeatherDisplay:10.37,2013-01-07 09:00:00,
2013-01-07 03:06:00,19.9,10.1,30.23,SE,135,0.0,0.0,65,0.00,CLR,FEW,0.00,WeatherDisplay:10.37,2013-01-07 09:06:00,
2013-01-07 03:12:00,19.9,13.9,30.23,South,180,0.0,0.0,77,0.00,CLR,FEW,0.00,WeatherDisplay:10.37,2013-01-07 09:12:00,
2013-01-07 03:17:00,19.8,9.9,30.23,SE,135,0.0,0.0,65,0.00,CLR,FEW,0.00,WeatherDisplay:10.37,2013-01-07 09:17:00,
2013-01-07 03:23:00,19.8,14.0,30.23,South,180,0.0,0.0,78,0.00,CLR,FEW,0.00,WeatherDisplay:10.37,2013-01-07 09:23:00,
2013-01-07 03:28:00,19.6,13.8,30.22,South,180,0.0,0.0,78,0.00,CLR,FEW,0.00,WeatherDisplay:10.37,2013-01-07 09:28:00,
2013-01-07 03:34:00,19.8,14.3,30.22,South,180,0.0,0.0,79,0.00,CLR,FEW,0.00,WeatherDisplay:10.37,2013-01-07 09:34:00,
2013-01-07 03:40:00,19.8,14.3,30.22,SE,135,0.0,0.0,79,0.00,CLR,FEW,0.00,WeatherDisplay:10.37,2013-01-07 09:40:00,
2013-01-07 03:45:00,19.8,14.3,30.22,South,180,0.0,0.0,79,0.00,CLR,FEW,0.00,WeatherDisplay:10.37,2013-01-07 09:45:00,
2013-01-07 03:51:00,19.9,10.1,30.22,SE,135,0.0,0.0,65,0.00,CLR,FEW,0.00,WeatherDisplay:10.37,2013-01-07 09:51:00,
2013-01-07 03:56:00,20.1,10.2,30.21,South,180,0.0,0.0,65,0.00,CLR,FEW,0.00,WeatherDisplay:10.37,2013-01-07 09:56:00,
2013-01-07 04:02:00,20.5,11.6,30.22,SE,135,0.0,1.1,68,0.00,CLR,FEW,0.00,WeatherDisplay:10.37,2013-01-07 10:02:00,
2013-01-07 04:08:00,20.7,15.2,30.21,SW,225,0.0,0.0,79,0.00,CLR,FEW,0.00,WeatherDisplay:10.37,2013-01-07 10:08:00,
2013-01-07 04:13:00,21.0,15.5,30.21,South,180,0.0,0.0,79,0.00,CLR,FEW,0.00,WeatherDisplay:10.37,2013-01-07 10:13:00,
2013-01-07 04:19:00,21.4,12.5,30.21,SE,135,0.0,0.0,68,0.00,CLR,FEW,0.00,WeatherDisplay:10.37,2013-01-07 10:19:00,
2013-01-07 04:24:00,21.9,13.0,30.20,SW,225,0.0,1.1,68,0.00,CLR,FEW,0.00,WeatherDisplay:10.37,2013-01-07 10:24:00,
2013-01-07 04:30:00,22.1,13.1,30.21,SW,225,0.7,3.5,68,0.00,CLR,FEW,0.00,WeatherDisplay:10.37,2013-01-07 10:30:00,
2013-01-07 04:36:00,22.5,16.3,30.21,SW,225,0.0,2.2,77,0.00,CLR,FEW,0.00,WeatherDisplay:10.37,2013-01-07 10:36:00,
2013-01-07 04:41:00,22.5,13.5,30.21,South,180,0.0,2.3,68,0.00,CLR,FEW,0.00,WeatherDisplay:10.37,2013-01-07 10:41:00,
2013-01-07 04:47:00,22.6,13.7,30.21,SW,225,0.0,1.1,68,0.00,CLR,FEW,0.00,WeatherDisplay:10.37,2013-01-07 10:47:00,
2013-01-07 04:52:00,22.5,13.5,30.21,South,180,0.0,3.5,68,0.00,CLR,FEW,0.00,WeatherDisplay:10.37,2013-01-07 10:52:00,
2013-01-07 04:58:00,22.6,13.7,30.21,South,180,0.0,2.3,68,0.00,CLR,FEW,0.00,WeatherDisplay:10.37,2013-01-07 10:58:00,
2013-01-07 05:04:00,22.6,16.2,30.21,South,180,0.0,3.5,76,0.00,CLR,FEW,0.00,WeatherDisplay:10.37,2013-01-07 11:04:00,
2013-01-07 05:09:00,22.6,16.5,30.20,South,180,0.0,2.3,77,0.00,CLR,FEW,0.00,WeatherDisplay:10.37,2013-01-07 11:09:00,
2013-01-07 05:15:00,22.6,12.6,30.20,SW,225,0.0,2.3,65,0.00,CLR,FEW,0.00,WeatherDisplay:10.37,2013-01-07 11:15:00,
2013-01-07 05:20:00,22.8,16.7,30.20,South,180,0.7,2.3,77,0.00,CLR,FEW,0.00,WeatherDisplay:10.37,2013-01-07 11:20:00,
2013-01-07 05:26:00,23.0,13.0,30.20,SW,225,0.0,3.5,65,0.00,CLR,FEW,0.00,WeatherDisplay:10.37,2013-01-07 11:26:00,
2013-01-07 05:32:00,23.2,17.0,30.20,South,180,1.6,3.8,77,0.00,CLR,FEW,0.00,WeatherDisplay:10.37,2013-01-07 11:32:00,
2013-01-07 05:37:00,23.4,16.9,30.20,WSW,248,0.0,3.5,76,0.00,CLR,FEW,0.00,WeatherDisplay:10.37,2013-01-07 11:37:00,
2013-01-07 05:43:00,23.2,13.1,30.19,South,180,0.0,3.5,65,0.00,CLR,FEW,0.00,WeatherDisplay:10.37,2013-01-07 11:43:00,
2013-01-07 05:48:00,23.4,13.3,30.19,South,180,0.7,3.5,65,0.00,CLR,FEW,0.00,WeatherDisplay:10.37,2013-01-07 11:48:00,
2013-01-07 05:54:00,23.4,13.3,30.19,South,180,0.7,2.3,65,0.00,CLR,FEW,0.00,WeatherDisplay:10.37,2013-01-07 11:54:00,
2013-01-07 06:00:00,23.4,13.3,30.19,South,180,0.7,3.5,65,0.00,CLR,FEW,0.00,WeatherDisplay:10.37,2013-01-07 12:00:00,
2013-01-07 06:05:00,23.4,13.3,30.19,South,180,1.6,5.8,65,0.00,CLR,FEW,0.00,WeatherDisplay:10.37,2013-01-07 12:05:00,
2013-01-07 06:11:00,23.7,13.7,30.19,SW,225,1.6,3.5,65,0.00,CLR,FEW,0.00,WeatherDisplay:10.37,2013-01-07 12:11:00,
2013-01-07 06:16:00,23.7,17.0,30.19,SW,225,0.0,3.5,75,0.00,CLR,FEW,0.00,WeatherDisplay:10.37,2013-01-07 12:16:00,
2013-01-07 06:22:00,23.5,16.8,30.19,South,180,0.7,3.8,75,0.00,CLR,FEW,0.00,WeatherDisplay:10.37,2013-01-07 12:22:00,
2013-01-07 06:28:00,23.4,13.3,30.19,SW,225,0.7,3.5,65,0.00,CLR,FEW,0.00,WeatherDisplay:10.37,2013-01-07 12:28:00,
2013-01-07 06:33:00,23.4,13.3,30.18,SE,135,1.6,3.5,65,0.00,CLR,FEW,0.00,WeatherDisplay:10.37,2013-01-07 12:33:00,
2013-01-07 06:39:00,23.5,13.5,30.18,SE,135,0.7,3.5,65,0.00,CLR,FEW,0.00,WeatherDisplay:10.37,2013-01-07 12:39:00,
2013-01-07 06:44:00,23.7,17.3,30.18,South,180,0.7,2.3,76,0.00,CLR,FEW,0.00,WeatherDisplay:10.37,2013-01-07 12:44:00,
2013-01-07 06:50:00,23.7,13.7,30.17,SE,135,1.6,4.6,65,0.00,CLR,FEW,0.00,WeatherDisplay:10.37,2013-01-07 12:50:00,
2013-01-07 06:56:00,23.9,17.4,30.17,SW,225,2.2,4.6,76,0.00,CLR,FEW,0.00,WeatherDisplay:10.37,2013-01-07 12:56:00,
2013-01-07 07:01:00,24.3,17.2,30.17,NW,315,2.2,6.0,74,0.00,CLR,FEW,0.00,WeatherDisplay:10.37,2013-01-07 13:01:00,
2013-01-07 07:07:00,24.4,14.7,30.17,WNW,292,0.7,3.5,66,0.00,CLR,FEW,0.00,WeatherDisplay:10.37,2013-01-07 13:07:00,
2013-01-07 07:12:00,24.4,17.0,30.17,SE,135,1.6,3.8,73,0.00,CLR,FEW,0.00,WeatherDisplay:10.37,2013-01-07 13:12:00,
2013-01-07 07:18:00,24.6,14.9,30.17,South,180,2.2,4.6,66,0.00,CLR,FEW,0.00,WeatherDisplay:10.37,2013-01-07 13:18:00,
2013-01-07 07:24:00,25.0,15.2,30.17,NW,315,3.1,9.2,66,0.00,CLR,FEW,0.00,WeatherDisplay:10.37,2013-01-07 13:24:00,
2013-01-07 07:29:00,25.2,15.4,30.17,SE,135,1.6,5.8,66,0.00,CLR,FEW,0.00,WeatherDisplay:10.37,2013-01-07 13:29:00,
2013-01-07 07:35:00,25.3,15.6,30.17,South,180,1.6,5.8,66,0.00,CLR,FEW,0.00,WeatherDisplay:10.37,2013-01-07 13:35:00,
2013-01-07 07:40:00,25.2,15.4,30.17,SW,225,1.6,3.5,66,0.00,CLR,FEW,0.00,WeatherDisplay:10.37,2013-01-07 13:40:00,
2013-01-07 07:46:00,25.2,16.7,30.17,SE,135,3.8,6.0,70,0.00,CLR,FEW,0.00,WeatherDisplay:10.37,2013-01-07 13:46:00,
2013-01-07 07:52:00,25.2,15.4,30.17,South,180,1.6,3.5,66,0.00,CLR,FEW,0.00,WeatherDisplay:10.37,2013-01-07 13:52:00,
2013-01-07 07:57:00,25.3,15.6,30.17,South,180,2.2,4.6,66,0.00,CLR,FEW,0.00,WeatherDisplay:10.37,2013-01-07 13:57:00,
2013-01-07 08:03:00,25.5,15.4,30.17,South,180,1.6,5.8,65,0.00,CLR,FEW,0.00,WeatherDisplay:10.37,2013-01-07 14:03:00,
2013-01-07 08:08:00,25.7,16.9,30.17,SW,225,5.4,9.8,69,0.00,CLR,FEW,0.00,WeatherDisplay:10.37,2013-01-07 14:08:00,
2013-01-07 08:14:00,25.9,15.7,30.17,South,180,1.6,5.8,65,0.00,CLR,FEW,0.00,WeatherDisplay:10.37,2013-01-07 14:14:00,
2013-01-07 08:20:00,26.2,16.1,30.16,SSE,158,3.8,8.1,65,0.00,CLR,FEW,0.00,WeatherDisplay:10.37,2013-01-07 14:20:00,
2013-01-07 08:25:00,26.6,16.4,30.16,West,270,1.6,4.6,65,0.00,CLR,FEW,0.00,WeatherDisplay:10.37,2013-01-07 14:25:00,
2013-01-07 08:31:00,27.5,17.3,30.16,SSW,202,2.2,5.8,65,0.00,CLR,FEW,0.00,WeatherDisplay:10.37,2013-01-07 14:31:00,
2013-01-07 08:36:00,28.6,17.2,30.16,South,180,3.1,8.3,62,0.00,CLR,FEW,0.00,WeatherDisplay:10.37,2013-01-07 14:36:00,
2013-01-07 08:42:00,29.7,17.5,30.17,South,180,2.2,8.1,60,0.00,CLR,FEW,0.00,WeatherDisplay:10.37,2013-01-07 14:42:00,
2013-01-07 08:48:00,29.5,17.3,30.16,South,180,1.6,5.8,60,0.00,CLR,FEW,0.00,WeatherDisplay:10.37,2013-01-07 14:48:00,
2013-01-07 08:53:00,29.8,17.6,30.16,South,180,2.2,12.7,60,0.00,CLR,FEW,0.00,WeatherDisplay:10.37,2013-01-07 14:53:00,
2013-01-07 08:59:00,30.0,19.7,30.16,South,180,3.8,6.9,65,0.00,CLR,FEW,0.00,WeatherDisplay:10.37,2013-01-07 14:59:00,
2013-01-07 09:04:00,30.2,17.2,30.16,SW,225,4.5,6.0,58,0.00,CLR,FEW,0.00,WeatherDisplay:10.37,2013-01-07 15:04:00,
2013-01-07 09:10:00,30.4,15.3,30.17,SW,225,4.5,8.1,53,0.00,CLR,FEW,0.00,WeatherDisplay:10.37,2013-01-07 15:10:00,
2013-01-07 09:16:00,30.9,15.8,30.17,South,180,3.1,8.1,53,0.00,CLR,FEW,0.00,WeatherDisplay:10.37,2013-01-07 15:16:00,
2013-01-07 09:21:00,31.6,17.7,30.17,SW,225,4.5,9.2,56,0.00,CLR,FEW,0.00,WeatherDisplay:10.37,2013-01-07 15:21:00,
2013-01-07 09:27:00,32.5,17.3,30.17,NNW,338,3.8,6.9,53,0.00,CLR,FEW,0.00,WeatherDisplay:10.37,2013-01-07 15:27:00,
2013-01-07 09:32:00,33.1,17.8,30.16,South,180,3.8,9.2,53,0.00,CLR,FEW,0.00,WeatherDisplay:10.37,2013-01-07 15:32:00,
2013-01-07 09:38:00,32.7,17.5,30.16,SW,225,3.8,6.9,53,0.00,CLR,FEW,0.00,WeatherDisplay:10.37,2013-01-07 15:38:00,
2013-01-07 09:44:00,32.5,17.3,30.16,SE,135,4.5,11.5,53,0.00,CLR,FEW,0.00,WeatherDisplay:10.37,2013-01-07 15:44:00,
2013-01-07 09:49:00,32.9,17.6,30.15,NNE,22,5.4,10.7,53,0.00,CLR,FEW,0.00,WeatherDisplay:10.37,2013-01-07 15:49:00,
2013-01-07 09:55:00,33.3,18.0,30.15,East,90,3.1,8.1,53,0.00,CLR,FEW,0.00,WeatherDisplay:10.37,2013-01-07 15:55:00,
2013-01-07 10:00:00,33.6,17.4,30.16,South,180,3.8,13.8,51,0.00,CLR,FEW,0.00,WeatherDisplay:10.37,2013-01-07 16:00:00,
2013-01-07 10:06:00,33.6,17.4,30.16,SW,225,7.6,14.5,51,0.00,CLR,FEW,0.00,WeatherDisplay:10.37,2013-01-07 16:06:00,
2013-01-07 10:12:00,34.7,17.9,30.16,South,180,3.1,9.2,50,0.00,CLR,FEW,0.00,WeatherDisplay:10.37,2013-01-07 16:12:00,
2013-01-07 10:17:00,35.8,18.9,30.16,South,180,2.2,5.8,50,0.01,RA,FEW,0.01,WeatherDisplay:10.37,2013-01-07 16:17:00,
2013-01-07 10:23:00,36.5,19.6,30.16,South,180,3.8,8.1,50,0.01,RA,FEW,0.01,WeatherDisplay:10.37,2013-01-07 16:23:00,
2013-01-07 10:28:00,36.3,17.5,30.16,SW,225,5.4,11.5,46,0.01,CLR,FEW,0.01,WeatherDisplay:10.37,2013-01-07 16:28:00,
2013-01-07 10:34:00,36.0,19.1,30.16,South,180,3.8,10.4,50,0.01,CLR,FEW,0.01,WeatherDisplay:10.37,2013-01-07 16:34:00,
2013-01-07 10:40:00,36.3,19.4,30.16,South,180,4.5,8.1,50,0.01,CLR,FEW,0.01,WeatherDisplay:10.37,2013-01-07 16:40:00,
2013-01-07 10:45:00,36.1,19.3,30.15,SW,225,4.5,8.1,50,0.01,CLR,FEW,0.01,WeatherDisplay:10.37,2013-01-07 16:45:00,
2013-01-07 10:51:00,35.1,18.3,30.14,South,180,5.4,11.5,50,0.01,CLR,FEW,0.01,WeatherDisplay:10.37,2013-01-07 16:51:00,
2013-01-07 10:56:00,35.2,18.9,30.14,SE,135,5.4,17.5,51,0.01,CLR,FEW,0.01,WeatherDisplay:10.37,2013-01-07 16:56:00,
2013-01-07 11:02:00,35.8,18.9,30.14,SE,135,3.8,11.4,50,0.01,CLR,FEW,0.01,WeatherDisplay:10.37,2013-01-07 17:02:00,
2013-01-07 11:08:00,36.1,16.8,30.14,South,180,3.1,6.9,45,0.01,CLR,FEW,0.01,WeatherDisplay:10.37,2013-01-07 17:08:00,
2013-01-07 11:13:00,36.5,17.1,30.13,South,180,3.8,9.2,45,0.01,CLR,FEW,0.01,WeatherDisplay:10.37,2013-01-07 17:13:00,
2013-01-07 11:19:00,36.7,17.3,30.12,SSE,158,2.2,5.8,45,0.00,CLR,FEW,0.01,WeatherDisplay:10.37,2013-01-07 17:19:00,
2013-01-07 11:24:00,36.3,19.4,30.11,South,180,3.1,10.4,50,0.00,CLR,FEW,0.01,WeatherDisplay:10.37,2013-01-07 17:24:00,
2013-01-07 11:30:00,37.0,20.1,30.10,SW,225,2.2,10.4,50,0.00,CLR,FEW,0.01,WeatherDisplay:10.37,2013-01-07 17:30:00,
2013-01-07 11:36:00,37.0,19.1,30.10,SW,225,3.8,10.4,48,0.00,CLR,FEW,0.01,WeatherDisplay:10.37,2013-01-07 17:36:00,
2013-01-07 11:41:00,36.9,19.5,30.09,SE,135,5.4,8.1,49,0.00,CLR,FEW,0.01,WeatherDisplay:10.37,2013-01-07 17:41:00,
2013-01-07 11:47:00,36.9,17.5,30.08,South,180,5.4,10.4,45,0.00,CLR,FEW,0.01,WeatherDisplay:10.37,2013-01-07 17:47:00,
2013-01-07 11:52:00,37.0,17.6,30.08,South,180,3.1,12.7,45,0.00,CLR,FEW,0.01,WeatherDisplay:10.37,2013-01-07 17:52:00,
2013-01-07 11:58:00,37.4,18.0,30.07,West,270,3.1,6.9,45,0.00,CLR,FEW,0.01,WeatherDisplay:10.37,2013-01-07 17:58:00,
2013-01-07 12:04:00,37.8,19.3,30.07,SW,225,6.0,12.7,47,0.00,CLR,FEW,0.01,WeatherDisplay:10.37,2013-01-07 18:04:00,
2013-01-07 12:09:00,38.1,17.6,30.07,SW,225,6.9,13.8,43,0.00,CLR,FEW,0.01,WeatherDisplay:10.37,2013-01-07 18:09:00,
2013-01-07 12:15:00,38.7,18.1,30.06,SE,135,4.5,8.1,43,0.00,CLR,FEW,0.01,WeatherDisplay:10.37,2013-01-07 18:15:00,
2013-01-07 12:20:00,38.7,19.1,30.06,South,180,4.5,12.7,45,0.00,CLR,FEW,0.01,WeatherDisplay:10.37,2013-01-07 18:20:00,
2013-01-07 12:26:00,39.2,18.5,30.06,South,180,6.0,10.4,43,0.00,CLR,FEW,0.01,WeatherDisplay:10.37,2013-01-07 18:26:00,
2013-01-07 12:32:00,39.4,18.7,30.06,South,180,4.5,11.5,43,0.00,CLR,FEW,0.01,WeatherDisplay:10.37,2013-01-07 18:32:00,
2013-01-07 12:37:00,39.9,19.7,30.06,West,270,3.8,9.2,44,0.00,CLR,FEW,0.01,WeatherDisplay:10.37,2013-01-07 18:37:00,
2013-01-07 12:43:00,40.1,19.4,30.05,South,180,3.8,10.4,43,0.00,CLR,FEW,0.01,WeatherDisplay:10.37,2013-01-07 18:43:00,
2013-01-07 12:48:00,40.5,19.7,30.05,South,180,5.4,10.7,43,0.00,CLR,FEW,0.01,WeatherDisplay:10.37,2013-01-07 18:48:00,
2013-01-07 12:54:00,41.2,20.3,30.05,South,180,4.5,8.1,43,0.00,CLR,FEW,0.01,WeatherDisplay:10.37,2013-01-07 18:54:00,
2013-01-07 13:00:00,41.5,20.7,30.05,SE,135,3.8,7.6,43,0.00,CLR,FEW,0.01,WeatherDisplay:10.37,2013-01-07 19:00:00,
2013-01-07 13:05:00,41.9,21.0,30.05,South,180,3.8,8.1,43,0.00,CLR,FEW,0.01,WeatherDisplay:10.37,2013-01-07 19:05:00,
2013-01-07 13:11:00,42.4,19.2,30.04,SW,225,5.4,10.4,39,0.00,CLR,FEW,0.01,WeatherDisplay:10.37,2013-01-07 19:11:00,
2013-01-07 13:16:00,42.6,19.4,30.05,South,180,2.2,5.8,39,0.00,CLR,FEW,0.01,WeatherDisplay:10.37,2013-01-07 19:16:00,
2013-01-07 13:22:00,42.8,19.5,30.05,South,180,7.6,12.7,39,0.00,CLR,FEW,0.01,WeatherDisplay:10.37,2013-01-07 19:22:00,
2013-01-07 13:28:00,42.3,19.6,30.04,SE,135,4.5,13.8,40,0.00,CLR,FEW,0.01,WeatherDisplay:10.37,2013-01-07 19:28:00,
2013-01-07 13:33:00,41.9,18.7,30.04,South,180,6.0,13.0,39,0.00,CLR,FEW,0.01,WeatherDisplay:10.37,2013-01-07 19:33:00,
2013-01-07 13:39:00,42.1,18.9,30.04,SW,225,4.5,12.7,39,0.00,CLR,FEW,0.01,WeatherDisplay:10.37,2013-01-07 19:39:00,
2013-01-07 13:44:00,42.4,19.2,30.04,South,180,3.1,5.8,39,0.00,CLR,FEW,0.01,WeatherDisplay:10.37,2013-01-07 19:44:00,
2013-01-07 13:50:00,42.1,18.9,30.03,SW,225,6.0,10.4,39,0.00,CLR,FEW,0.01,WeatherDisplay:10.37,2013-01-07 19:50:00,
2013-01-07 13:56:00,42.4,19.2,30.03,South,180,3.1,13.8,39,0.00,CLR,FEW,0.01,WeatherDisplay:10.37,2013-01-07 19:56:00,
2013-01-07 14:01:00,42.8,20.7,30.03,South,180,5.4,10.4,41,0.00,CLR,FEW,0.01,WeatherDisplay:10.37,2013-01-07 20:01:00,
2013-01-07 14:07:00,42.8,18.3,30.03,NW,315,4.5,11.5,37,0.00,CLR,FEW,0.01,WeatherDisplay:10.37,2013-01-07 20:07:00,
2013-01-07 14:12:00,42.4,20.9,30.03,SE,135,3.1,5.8,42,0.00,CLR,FEW,0.01,WeatherDisplay:10.37,2013-01-07 20:12:00,
2013-01-07 14:18:00,42.3,17.8,30.02,SW,225,3.8,10.4,37,0.00,CLR,FEW,0.01,WeatherDisplay:10.37,2013-01-07 20:18:00,
2013-01-07 14:24:00,42.1,17.6,30.03,SSE,158,3.8,8.1,37,0.00,CLR,FEW,0.01,WeatherDisplay:10.37,2013-01-07 20:24:00,
2013-01-07 14:30:00,41.9,17.5,30.03,South,180,3.1,8.3,37,0.00,CLR,FEW,0.01,WeatherDisplay:10.37,2013-01-07 20:30:00,
2013-01-07 14:36:00,41.5,21.2,30.02,SW,225,3.8,9.8,44,0.00,CLR,FEW,0.01,WeatherDisplay:10.37,2013-01-07 20:36:00,
2013-01-07 14:41:00,41.5,17.2,30.02,South,180,3.8,10.4,37,0.00,CLR,FEW,0.01,WeatherDisplay:10.37,2013-01-07 20:41:00,
2013-01-07 14:47:00,41.4,17.0,30.02,WNW,292,5.4,10.7,37,0.00,CLR,FEW,0.01,WeatherDisplay:10.37,2013-01-07 20:47:00,
2013-01-07 14:52:00,41.5,17.2,30.01,SW,225,1.6,5.8,37,0.00,CLR,FEW,0.01,WeatherDisplay:10.37,2013-01-07 20:52:00,
2013-01-07 14:58:00,41.7,17.3,30.02,South,180,3.1,8.1,37,0.00,CLR,FEW,0.01,WeatherDisplay:10.37,2013-01-07 20:58:00,
2013-01-07 15:04:00,41.5,21.8,30.01,South,180,4.5,10.7,45,0.00,CLR,FEW,0.01,WeatherDisplay:10.37,2013-01-07 21:04:00,
2013-01-07 15:09:00,41.2,20.9,30.02,South,180,3.1,9.2,44,0.00,CLR,FEW,0.01,WeatherDisplay:10.37,2013-01-07 21:09:00,
2013-01-07 15:15:00,41.0,20.7,30.01,SSE,158,3.8,5.8,44,0.00,CLR,FEW,0.01,WeatherDisplay:10.37,2013-01-07 21:15:00,
2013-01-07 15:20:00,40.1,21.5,30.01,SE,135,3.8,10.4,47,0.00,CLR,FEW,0.01,WeatherDisplay:10.37,2013-01-07 21:20:00,
2013-01-07 15:26:00,39.9,19.7,30.01,SE,135,4.5,12.7,44,0.00,CLR,FEW,0.01,WeatherDisplay:10.37,2013-01-07 21:26:00,
2013-01-07 15:32:00,40.1,22.0,30.01,South,180,3.8,12.7,48,0.00,CLR,FEW,0.01,WeatherDisplay:10.37,2013-01-07 21:32:00,
2013-01-07 15:37:00,39.9,22.3,30.01,South,180,3.8,6.0,49,0.00,CLR,FEW,0.01,WeatherDisplay:10.37,2013-01-07 21:37:00,
2013-01-07 15:43:00,39.6,19.4,30.00,South,180,4.5,8.1,44,0.00,CLR,FEW,0.01,WeatherDisplay:10.37,2013-01-07 21:43:00,
2013-01-07 15:48:00,39.4,19.3,30.00,SSW,202,3.8,6.9,44,0.00,CLR,FEW,0.01,WeatherDisplay:10.37,2013-01-07 21:48:00,
2013-01-07 15:54:00,39.2,19.1,30.00,East,90,1.6,5.8,44,0.00,CLR,FEW,0.01,WeatherDisplay:10.37,2013-01-07 21:54:00,
2013-01-07 16:00:00,39.0,18.9,30.00,South,180,3.1,6.9,44,0.00,CLR,FEW,0.01,WeatherDisplay:10.37,2013-01-07 22:00:00,
2013-01-07 16:05:00,38.8,18.8,30.00,SW,225,3.1,5.8,44,0.00,CLR,FEW,0.01,WeatherDisplay:10.37,2013-01-07 22:05:00,
2013-01-07 16:11:00,38.7,18.6,30.00,SW,225,5.4,8.1,44,0.00,CLR,FEW,0.01,WeatherDisplay:10.37,2013-01-07 22:11:00,
2013-01-07 16:16:00,38.5,18.4,30.00,SW,225,3.8,8.1,44,0.00,CLR,FEW,0.01,WeatherDisplay:10.37,2013-01-07 22:16:00,
2013-01-07 16:22:00,38.3,22.6,30.00,East,90,3.8,10.4,53,0.00,CLR,FEW,0.01,WeatherDisplay:10.37,2013-01-07 22:22:00,
2013-01-07 16:28:00,38.1,22.9,30.01,SW,225,3.8,10.7,54,0.00,CLR,FEW,0.01,WeatherDisplay:10.37,2013-01-07 22:28:00,
2013-01-07 16:33:00,37.9,17.9,30.01,SSW,202,3.8,5.8,44,0.00,CLR,FEW,0.01,WeatherDisplay:10.37,2013-01-07 22:33:00,
2013-01-07 16:39:00,37.8,17.8,30.01,SW,225,2.2,9.2,44,0.00,CLR,FEW,0.01,WeatherDisplay:10.37,2013-01-07 22:39:00,
2013-01-07 16:44:00,37.2,22.9,30.02,South,180,3.8,10.7,56,0.00,CLR,FEW,0.01,WeatherDisplay:10.37,2013-01-07 22:44:00,
2013-01-07 16:50:00,37.2,17.3,30.02,South,180,3.8,8.1,44,0.00,CLR,FEW,0.01,WeatherDisplay:10.37,2013-01-07 22:50:00,
2013-01-07 16:56:00,37.2,22.9,30.02,SE,135,2.2,3.8,56,0.00,CLR,FEW,0.01,WeatherDisplay:10.37,2013-01-07 22:56:00,
2013-01-07 17:01:00,37.0,18.1,30.03,South,180,3.8,9.2,46,0.00,CLR,FEW,0.01,WeatherDisplay:10.37,2013-01-07 23:01:00,
2013-01-07 17:07:00,37.0,18.1,30.03,SSW,202,3.1,9.2,46,0.00,CLR,FEW,0.01,WeatherDisplay:10.37,2013-01-07 23:07:00,
2013-01-07 17:12:00,36.9,18.0,30.03,SSW,202,2.2,8.1,46,0.00,CLR,FEW,0.01,WeatherDisplay:10.37,2013-01-07 23:12:00,
2013-01-07 17:18:00,36.7,23.3,30.03,SW,225,3.1,5.8,58,0.00,CLR,FEW,0.01,WeatherDisplay:10.37,2013-01-07 23:18:00,
2013-01-07 17:24:00,36.5,23.5,30.03,SW,225,2.2,6.0,59,0.00,CLR,FEW,0.01,WeatherDisplay:10.37,2013-01-07 23:24:00,
2013-01-07 17:29:00,36.5,23.5,30.03,SW,225,2.2,3.8,59,0.00,CLR,FEW,0.01,WeatherDisplay:10.37,2013-01-07 23:29:00,
2013-01-07 17:35:00,36.3,17.5,30.03,South,180,3.1,5.8,46,0.00,CLR,FEW,0.01,WeatherDisplay:10.37,2013-01-07 23:35:00,
2013-01-07 17:40:00,36.1,23.6,30.03,SW,225,2.2,6.9,60,0.00,CLR,FEW,0.01,WeatherDisplay:10.37,2013-01-07 23:40:00,
2013-01-07 17:46:00,36.1,17.3,30.03,South,180,3.8,5.8,46,0.00,CLR,FEW,0.01,WeatherDisplay:10.37,2013-01-07 23:46:00,
2013-01-07 17:52:00,36.0,23.8,30.02,SW,225,1.6,3.1,61,0.00,CLR,FEW,0.01,WeatherDisplay:10.37,2013-01-07 23:52:00,
2013-01-07 17:57:00,35.8,17.0,30.02,SW,225,1.6,3.5,46,0.00,CLR,FEW,0.01,WeatherDisplay:10.37,2013-01-07 23:57:00,
2013-01-07 18:03:00,35.8,19.4,30.02,West,270,0.7,3.5,51,0.00,CLR,FEW,0.01,WeatherDisplay:10.37,2013-01-08 00:03:00,
2013-01-07 18:08:00,36.0,19.6,30.02,South,180,1.6,5.8,51,0.00,CLR,FEW,0.01,WeatherDisplay:10.37,2013-01-08 00:08:00,
2013-01-07 18:14:00,36.0,19.6,30.02,SSE,158,1.6,12.7,51,0.00,CLR,FEW,0.01,WeatherDisplay:10.37,2013-01-08 00:14:00,
2013-01-07 18:20:00,36.0,23.8,30.02,South,180,1.6,3.8,61,0.00,CLR,FEW,0.01,WeatherDisplay:10.37,2013-01-08 00:20:00,
2013-01-07 18:25:00,36.0,19.6,30.02,SW,225,0.7,5.8,51,0.00,CLR,FEW,0.01,WeatherDisplay:10.37,2013-01-08 00:25:00,
2013-01-07 18:31:00,35.8,19.4,30.01,SSW,202,1.6,5.8,51,0.00,CLR,FEW,0.01,WeatherDisplay:10.37,2013-01-08 00:31:00,
2013-01-07 18:36:00,35.8,19.4,30.02,SW,225,2.2,5.8,51,0.00,CLR,FEW,0.01,WeatherDisplay:10.37,2013-01-08 00:36:00,
2013-01-07 18:42:00,35.6,19.2,30.02,SW,225,1.6,3.5,51,0.00,CLR,FEW,0.01,WeatherDisplay:10.37,2013-01-08 00:42:00,
2013-01-07 18:48:00,35.6,23.9,30.02,South,180,1.6,4.6,62,0.00,CLR,FEW,0.01,WeatherDisplay:10.37,2013-01-08 00:48:00,
2013-01-07 18:53:00,35.8,24.0,30.01,NE,45,2.2,5.4,62,0.00,CLR,FEW,0.01,WeatherDisplay:10.37,2013-01-08 00:53:00,
2013-01-07 18:59:00,35.6,19.2,30.01,SE,135,1.6,4.6,51,0.00,CLR,FEW,0.01,WeatherDisplay:10.37,2013-01-08 00:59:00,
2013-01-07 19:04:00,35.6,23.9,30.02,West,270,2.2,4.5,62,0.00,CLR,FEW,0.01,WeatherDisplay:10.37,2013-01-08 01:04:00,
2013-01-07 19:10:00,35.6,19.2,30.02,West,270,1.6,3.5,51,0.00,CLR,FEW,0.01,WeatherDisplay:10.37,2013-01-08 01:10:00,
2013-01-07 19:16:00,35.4,19.1,30.02,NW,315,0.7,4.6,51,0.00,CLR,FEW,0.01,WeatherDisplay:10.37,2013-01-08 01:16:00,
2013-01-07 19:21:00,35.2,18.9,30.02,South,180,0.7,3.5,51,0.00,CLR,FEW,0.01,WeatherDisplay:10.37,2013-01-08 01:21:00,
2013-01-07 19:27:00,35.1,18.7,30.02,SW,225,0.0,3.5,51,0.00,CLR,FEW,0.01,WeatherDisplay:10.37,2013-01-08 01:27:00,
2013-01-07 19:32:00,35.1,18.7,30.01,South,180,0.0,2.3,51,0.00,CLR,FEW,0.01,WeatherDisplay:10.37,2013-01-08 01:32:00,
2013-01-07 19:38:00,34.9,24.3,30.02,SW,225,0.7,3.1,65,0.00,CLR,FEW,0.01,WeatherDisplay:10.37,2013-01-08 01:38:00,
2013-01-07 19:44:00,34.9,24.3,30.02,South,180,0.7,3.8,65,0.00,CLR,FEW,0.01,WeatherDisplay:10.37,2013-01-08 01:44:00,
2013-01-07 19:49:00,34.7,18.4,30.02,South,180,0.7,2.3,51,0.00,CLR,FEW,0.01,WeatherDisplay:10.37,2013-01-08 01:49:00,
2013-01-07 19:55:00,34.9,18.6,30.01,SE,135,0.0,2.3,51,0.00,CLR,FEW,0.01,WeatherDisplay:10.37,2013-01-08 01:55:00,
2013-01-07 20:00:00,34.7,24.1,30.01,SE,135,0.0,2.3,65,0.00,CLR,FEW,0.01,WeatherDisplay:10.37,2013-01-08 02:00:00,
2013-01-07 20:06:00,34.7,18.4,30.01,SW,225,0.0,1.1,51,0.00,CLR,FEW,0.01,WeatherDisplay:10.37,2013-01-08 02:06:00,
2013-01-07 20:12:00,34.5,24.3,30.02,SW,225,0.0,1.6,66,0.00,CLR,FEW,0.01,WeatherDisplay:10.37,2013-01-08 02:12:00,
2013-01-07 20:17:00,34.2,17.9,30.02,South,180,0.7,2.3,51,0.00,CLR,FEW,0.01,WeatherDisplay:10.37,2013-01-08 02:17:00,
2013-01-07 20:23:00,34.0,24.5,30.02,South,180,0.0,2.3,68,0.00,CLR,FEW,0.01,WeatherDisplay:10.37,2013-01-08 02:23:00,
2013-01-07 20:28:00,33.8,24.7,30.02,SE,135,0.7,3.5,69,0.00,CLR,FEW,0.01,WeatherDisplay:10.37,2013-01-08 02:28:00,
2013-01-07 20:34:00,33.6,17.4,30.02,South,180,0.0,1.1,51,0.00,CLR,FEW,0.01,WeatherDisplay:10.37,2013-01-08 02:34:00,
2013-01-07 20:40:00,33.6,17.4,30.02,South,180,0.0,3.5,51,0.00,CLR,FEW,0.01,WeatherDisplay:10.37,2013-01-08 02:40:00,
2013-01-07 20:45:00,33.4,24.7,30.01,NE,45,0.0,1.6,70,0.00,CLR,FEW,0.01,WeatherDisplay:10.37,2013-01-08 02:45:00,
2013-01-07 20:51:00,33.1,16.9,30.02,SE,135,0.7,2.3,51,0.00,CLR,FEW,0.01,WeatherDisplay:10.37,2013-01-08 02:51:00,
2013-01-07 20:56:00,32.9,24.5,30.01,South,180,0.0,1.1,71,0.00,CLR,FEW,0.01,WeatherDisplay:10.37,2013-01-08 02:56:00,
2013-01-07 21:02:00,32.7,20.4,30.02,South,180,0.7,1.1,60,0.00,CLR,FEW,0.01,WeatherDisplay:10.37,2013-01-08 03:02:00,
2013-01-07 21:08:00,32.5,20.2,30.02,SE,135,0.0,1.1,60,0.00,CLR,FEW,0.01,WeatherDisplay:10.37,2013-01-08 03:08:00,
2013-01-07 21:13:00,32.5,20.2,30.02,South,180,0.0,1.1,60,0.00,CLR,FEW,0.01,WeatherDisplay:10.37,2013-01-08 03:13:00,
2013-01-07 21:19:00,32.5,20.2,30.01,South,180,0.0,3.5,60,0.00,CLR,FEW,0.01,WeatherDisplay:10.37,2013-01-08 03:19:00,
2013-01-07 21:24:00,32.5,25.2,30.01,South,180,0.0,3.5,74,0.00,CLR,FEW,0.01,WeatherDisplay:10.37,2013-01-08 03:24:00,
2013-01-07 21:30:00,32.5,25.2,30.01,South,180,0.0,2.3,74,0.00,CLR,FEW,0.01,WeatherDisplay:10.37,2013-01-08 03:30:00,
2013-01-07 21:36:00,32.5,20.2,30.01,NE,45,0.0,1.1,60,0.00,CLR,FEW,0.01,WeatherDisplay:10.37,2013-01-08 03:36:00,
2013-01-07 21:41:00,32.5,20.2,30.02,South,180,0.0,1.1,60,0.00,CLR,FEW,0.01,WeatherDisplay:10.37,2013-01-08 03:41:00,
2013-01-07 21:47:00,32.5,20.2,30.01,South,180,0.7,3.5,60,0.00,CLR,FEW,0.01,WeatherDisplay:10.37,2013-01-08 03:47:00,
2013-01-07 21:52:00,32.5,25.2,30.01,South,180,0.0,3.5,74,0.00,CLR,FEW,0.01,WeatherDisplay:10.37,2013-01-08 03:52:00,
2013-01-07 21:58:00,32.4,20.0,30.01,SW,225,0.0,1.6,60,0.00,CLR,FEW,0.01,WeatherDisplay:10.37,2013-01-08 03:58:00,
2013-01-07 22:04:00,32.2,24.8,30.01,South,180,0.0,2.3,74,0.00,CLR,FEW,0.01,WeatherDisplay:10.37,2013-01-08 04:04:00,
2013-01-07 22:09:00,32.2,25.1,30.01,SE,135,0.0,1.6,75,0.00,CLR,FEW,0.01,WeatherDisplay:10.37,2013-01-08 04:09:00,
2013-01-07 22:15:00,32.0,20.8,30.02,South,180,0.0,1.6,63,0.00,CLR,FEW,0.01,WeatherDisplay:10.37,2013-01-08 04:15:00,
2013-01-07 22:20:00,32.0,25.0,30.02,South,180,0.0,1.6,75,0.00,CLR,FEW,0.01,WeatherDisplay:10.37,2013-01-08 04:20:00,
2013-01-07 22:26:00,32.0,20.8,30.02,SE,135,0.0,1.6,63,0.00,CLR,FEW,0.01,WeatherDisplay:10.37,2013-01-08 04:26:00,
2013-01-07 22:32:00,32.2,25.5,30.02,SE,135,0.7,1.6,76,0.00,CLR,FEW,0.01,WeatherDisplay:10.37,2013-01-08 04:32:00,
2013-01-07 22:37:00,32.2,21.0,30.02,South,180,0.7,2.3,63,0.00,CLR,FEW,0.01,WeatherDisplay:10.37,2013-01-08 04:37:00,
2013-01-07 22:43:00,32.4,21.2,30.02,South,180,0.0,2.3,63,0.00,CLR,FEW,0.01,WeatherDisplay:10.37,2013-01-08 04:43:00,
2013-01-07 22:48:00,32.4,25.3,30.02,South,180,0.7,2.3,75,0.00,CLR,FEW,0.01,WeatherDisplay:10.37,2013-01-08 04:48:00,
2013-01-07 22:54:00,32.4,21.2,30.01,South,180,0.0,3.5,63,0.00,CLR,FEW,0.01,WeatherDisplay:10.37,2013-01-08 04:54:00,
2013-01-07 23:00:00,32.4,25.3,30.02,South,180,0.7,3.1,75,0.00,CLR,FEW,0.01,WeatherDisplay:10.37,2013-01-08 05:00:00,
2013-01-07 23:03:00,32.4,21.2,30.01,South,180,0.7,3.5,63,0.00,CLR,FEW,0.01,WeatherDisplay:10.37,2013-01-08 05:03:00,
2013-01-07 23:04:00,32.4,21.2,30.01,South,180,0.7,2.3,63,0.00,CLR,FEW,0.01,WeatherDisplay:10.37,2013-01-08 05:04:00,
2013-01-07 23:09:00,32.2,21.0,30.01,SSE,158,0.7,2.3,63,0.00,CLR,FEW,0.01,WeatherDisplay:10.37,2013-01-08 05:09:00,
2013-01-07 23:15:00,32.2,21.0,30.01,SW,225,0.0,1.6,63,0.00,CLR,FEW,0.01,WeatherDisplay:10.37,2013-01-08 05:15:00,
2013-01-07 23:20:00,32.0,25.0,30.01,South,180,0.0,1.1,75,0.00,CLR,FEW,0.01,WeatherDisplay:10.37,2013-01-08 05:20:00,
2013-01-07 23:26:00,32.0,25.3,30.01,South,180,0.7,2.3,76,0.00,CLR,FEW,0.01,WeatherDisplay:10.37,2013-01-08 05:26:00,
2013-01-07 23:32:00,32.0,25.3,30.02,East,90,0.0,3.5,76,0.00,CLR,FEW,0.01,WeatherDisplay:10.37,2013-01-08 05:32:00,
2013-01-07 23:37:00,32.0,20.8,30.01,South,180,0.7,3.5,63,0.00,CLR,FEW,0.01,WeatherDisplay:10.37,2013-01-08 05:37:00,
2013-01-07 23:43:00,32.0,20.8,30.01,South,180,0.7,2.3,63,0.00,CLR,FEW,0.01,WeatherDisplay:10.37,2013-01-08 05:43:00,
2013-01-07 23:48:00,32.0,25.3,30.01,SW,225,0.7,2.3,76,0.00,CLR,FEW,0.01,WeatherDisplay:10.37,2013-01-08 05:48:00,
2013-01-07 23:54:00,32.2,21.0,30.01,South,180,0.7,3.5,63,0.00,CLR,FEW,0.01,WeatherDisplay:10.37,2013-01-08 05:54:00,